createdAt,value
2018-10-17T00:01:53.700Z,9.60
2018-10-17T00:04:22.067Z,9.60
2018-10-17T00:06:50.416Z,9.60
2018-10-17T00:09:18.784Z,9.60
2018-10-17T00:11:47.146Z,9.60
2018-10-17T00:14:15.519Z,9.50
2018-10-17T00:16:43.892Z,9.50
2018-10-17T00:19:12.317Z,9.50
2018-10-17T00:21:40.632Z,9.50
2018-10-17T00:24:09.008Z,9.40
2018-10-17T00:26:37.348Z,9.40
2018-10-17T00:29:05.778Z,9.40
2018-10-17T00:31:34.064Z,9.40
2018-10-17T00:34:02.425Z,9.40
2018-10-17T00:36:30.767Z,9.40
2018-10-17T00:38:59.148Z,9.40
2018-10-17T00:41:27.464Z,9.30
2018-10-17T00:43:55.824Z,9.30
2018-10-17T00:46:24.147Z,9.30
2018-10-17T00:48:52.537Z,9.30
2018-10-17T00:51:20.828Z,9.30
2018-10-17T00:53:49.172Z,9.30
2018-10-17T00:56:17.500Z,9.20
2018-10-17T00:59:18.595Z,9.20
2018-10-17T01:01:46.955Z,9.20
2018-10-17T01:04:15.341Z,9.20
2018-10-17T01:06:43.740Z,9.20
2018-10-17T01:09:13.268Z,9.20
2018-10-17T01:11:41.926Z,9.10
2018-10-17T01:14:12.042Z,9.10
2018-10-17T01:16:40.456Z,9.00
2018-10-17T01:19:08.916Z,9.00
2018-10-17T01:21:37.715Z,8.90
2018-10-17T01:24:06.412Z,8.90
2018-10-17T01:26:34.789Z,8.90
2018-10-17T01:29:03.242Z,8.90
2018-10-17T01:31:31.551Z,8.90
2018-10-17T01:33:59.951Z,8.90
2018-10-17T01:36:28.300Z,8.80
2018-10-17T01:38:56.683Z,8.80
2018-10-17T01:41:25.073Z,8.80
2018-10-17T01:43:53.445Z,8.70
2018-10-17T01:46:21.768Z,8.70
2018-10-17T01:48:50.154Z,8.70
2018-10-17T01:51:18.484Z,8.70
2018-10-17T01:53:46.875Z,8.70
2018-10-17T01:56:15.195Z,8.60
2018-10-17T01:58:43.559Z,8.60
2018-10-17T02:01:11.922Z,8.60
2018-10-17T02:03:40.276Z,8.60
2018-10-17T02:06:08.747Z,8.60
2018-10-17T02:08:37.123Z,8.60
2018-10-17T02:11:05.557Z,8.60
2018-10-17T02:13:33.904Z,8.60
2018-10-17T02:16:02.279Z,8.60
2018-10-17T02:18:30.623Z,8.60
2018-10-17T02:20:58.987Z,8.60
2018-10-17T02:23:27.312Z,8.60
2018-10-17T02:25:55.685Z,8.60
2018-10-17T02:28:24.024Z,8.60
2018-10-17T02:30:52.438Z,8.50
2018-10-17T02:33:20.796Z,8.50
2018-10-17T02:35:49.135Z,8.50
2018-10-17T02:38:17.517Z,8.50
2018-10-17T02:40:45.861Z,8.50
2018-10-17T02:43:14.233Z,8.50
2018-10-17T02:45:42.580Z,8.40
2018-10-17T02:48:10.951Z,8.40
2018-10-17T02:50:39.352Z,8.40
2018-10-17T02:53:07.802Z,8.40
2018-10-17T02:55:36.092Z,8.40
2018-10-17T02:58:04.516Z,8.40
2018-10-17T03:00:32.845Z,8.30
2018-10-17T03:03:01.237Z,8.40
2018-10-17T03:05:29.597Z,8.40
2018-10-17T03:07:57.960Z,8.40
2018-10-17T03:10:26.293Z,8.40
2018-10-17T03:12:54.676Z,8.40
2018-10-17T03:15:23.012Z,8.40
2018-10-17T03:17:51.393Z,8.40
2018-10-17T03:20:19.748Z,8.40
2018-10-17T03:22:48.113Z,8.40
2018-10-17T03:25:16.529Z,8.40
2018-10-17T03:27:44.872Z,8.40
2018-10-17T03:30:13.220Z,8.40
2018-10-17T03:32:41.608Z,8.40
2018-10-17T03:35:09.976Z,8.40
2018-10-17T03:37:38.327Z,8.40
2018-10-17T03:40:06.700Z,8.30
2018-10-17T03:42:35.068Z,8.40
2018-10-17T03:45:03.425Z,8.30
2018-10-17T03:47:31.785Z,8.30
2018-10-17T03:50:00.243Z,8.40
2018-10-17T03:52:28.521Z,8.40
2018-10-17T03:54:56.864Z,8.40
2018-10-17T03:57:25.300Z,8.30
2018-10-17T03:59:53.661Z,8.40
2018-10-17T04:02:22.060Z,8.40
2018-10-17T04:04:50.404Z,8.40
2018-10-17T04:07:18.885Z,8.30
2018-10-17T04:09:47.168Z,8.30
2018-10-17T04:12:15.515Z,8.30
2018-10-17T04:14:43.942Z,8.30
2018-10-17T04:17:12.331Z,8.30
2018-10-17T04:19:40.752Z,8.30
2018-10-17T04:22:09.155Z,8.30
2018-10-17T04:24:37.574Z,8.30
2018-10-17T04:27:05.984Z,8.20
2018-10-17T04:29:34.610Z,8.20
2018-10-17T04:32:02.977Z,8.20
2018-10-17T04:34:31.360Z,8.20
2018-10-17T04:36:59.751Z,8.20
2018-10-17T04:39:28.121Z,8.10
2018-10-17T04:41:56.442Z,8.10
2018-10-17T04:44:24.816Z,8.10
2018-10-17T04:46:53.185Z,8.10
2018-10-17T04:49:21.599Z,8.10
2018-10-17T04:51:49.941Z,8.00
2018-10-17T04:54:18.301Z,8.00
2018-10-17T04:56:46.647Z,8.00
2018-10-17T04:59:15.122Z,8.00
2018-10-17T05:01:43.368Z,7.90
2018-10-17T05:04:11.732Z,7.90
2018-10-17T05:06:40.151Z,7.90
2018-10-17T05:09:09.536Z,7.90
2018-10-17T05:11:38.183Z,7.90
2018-10-17T05:14:06.780Z,7.90
2018-10-17T05:16:35.533Z,8.00
2018-10-17T05:19:04.025Z,8.00
2018-10-17T05:21:32.349Z,8.00
2018-10-17T05:24:00.731Z,8.10
2018-10-17T05:26:29.125Z,8.30
2018-10-17T05:28:57.503Z,8.40
2018-10-17T05:31:25.953Z,8.50
2018-10-17T05:33:54.337Z,8.40
2018-10-17T05:36:22.685Z,8.40
2018-10-17T05:38:51.029Z,8.30
2018-10-17T05:41:19.425Z,8.30
2018-10-17T05:43:47.776Z,8.20
2018-10-17T05:46:16.176Z,8.20
2018-10-17T05:48:44.552Z,8.10
2018-10-17T05:51:12.956Z,8.10
2018-10-17T05:53:41.320Z,8.00
2018-10-17T05:56:09.693Z,8.00
2018-10-17T05:58:38.036Z,8.00
2018-10-17T06:01:07.126Z,7.90
2018-10-17T06:03:35.392Z,7.90
2018-10-17T06:06:03.793Z,7.90
2018-10-17T06:08:32.155Z,7.90
2018-10-17T06:11:00.598Z,7.90
2018-10-17T06:13:28.901Z,7.90
2018-10-17T06:15:57.296Z,8.00
2018-10-17T06:18:25.640Z,8.00
2018-10-17T06:20:54.025Z,8.00
2018-10-17T06:23:22.389Z,8.00
2018-10-17T06:25:50.777Z,8.00
2018-10-17T06:28:19.229Z,8.00
2018-10-17T06:30:47.588Z,8.00
2018-10-17T06:33:15.904Z,8.10
2018-10-17T06:35:44.291Z,8.30
2018-10-17T06:38:12.640Z,8.60
2018-10-17T06:40:41.008Z,8.90
2018-10-17T06:43:09.462Z,9.10
2018-10-17T06:45:37.756Z,9.40
2018-10-17T06:48:06.345Z,9.50
2018-10-17T06:50:34.734Z,9.50
2018-10-17T06:53:03.146Z,9.40
2018-10-17T06:55:31.540Z,9.40
2018-10-17T06:57:59.880Z,9.20
2018-10-17T07:00:28.265Z,9.20
2018-10-17T07:02:56.607Z,9.00
2018-10-17T07:05:25.098Z,8.90
2018-10-17T07:07:53.492Z,8.80
2018-10-17T07:10:21.877Z,8.70
2018-10-17T07:12:50.228Z,8.60
2018-10-17T07:15:18.666Z,8.60
2018-10-17T07:17:46.984Z,8.60
2018-10-17T07:20:15.345Z,8.50
2018-10-17T07:22:43.726Z,8.50
2018-10-17T07:25:12.171Z,8.50
2018-10-17T07:27:40.482Z,8.50
2018-10-17T07:30:12.480Z,8.60
2018-10-17T07:32:40.864Z,8.60
2018-10-17T07:35:10.027Z,8.60
2018-10-17T07:37:38.413Z,8.70
2018-10-17T07:40:06.835Z,8.70
2018-10-17T07:42:35.312Z,8.80
2018-10-17T07:45:03.759Z,8.80
2018-10-17T07:47:32.131Z,8.90
2018-10-17T07:50:00.460Z,9.10
2018-10-17T07:52:28.829Z,9.20
2018-10-17T07:54:57.166Z,9.30
2018-10-17T07:57:25.568Z,9.40
2018-10-17T07:59:54.061Z,9.50
2018-10-17T08:02:22.329Z,9.60
2018-10-17T08:04:50.796Z,9.70
2018-10-17T08:07:19.296Z,9.90
2018-10-17T08:09:47.636Z,10.00
2018-10-17T08:12:16.090Z,10.10
2018-10-17T08:14:44.376Z,10.30
2018-10-17T08:17:13.056Z,10.40
2018-10-17T08:19:41.403Z,10.50
2018-10-17T08:22:09.780Z,10.60
2018-10-17T08:24:38.126Z,10.80
2018-10-17T08:27:06.553Z,10.90
2018-10-17T08:29:34.897Z,11.00
2018-10-17T08:32:03.331Z,11.20
2018-10-17T08:34:31.660Z,11.30
2018-10-17T08:37:00.180Z,11.50
2018-10-17T08:39:28.405Z,11.70
2018-10-17T08:41:56.797Z,11.80
2018-10-17T08:44:25.163Z,11.90
2018-10-17T08:46:53.561Z,12.10
2018-10-17T08:49:21.917Z,12.20
2018-10-17T08:51:50.325Z,12.40
2018-10-17T08:54:18.748Z,12.50
2018-10-17T08:56:47.143Z,12.60
2018-10-17T08:59:15.488Z,12.70
2018-10-17T09:01:44.344Z,12.80
2018-10-17T09:04:12.777Z,13.00
2018-10-17T09:06:41.129Z,13.10
2018-10-17T09:09:11.004Z,13.20
2018-10-17T09:11:40.021Z,13.30
2018-10-17T09:14:08.605Z,13.50
2018-10-17T09:16:36.964Z,13.60
2018-10-17T09:19:05.621Z,13.70
2018-10-17T09:21:34.306Z,13.80
2018-10-17T09:24:02.443Z,13.90
2018-10-17T09:26:30.743Z,14.00
2018-10-17T09:28:59.137Z,14.10
2018-10-17T09:31:27.603Z,14.20
2018-10-17T09:33:56.032Z,14.30
2018-10-17T09:36:24.740Z,14.40
2018-10-17T09:38:53.360Z,14.50
2018-10-17T09:41:21.752Z,14.60
2018-10-17T09:43:50.169Z,14.70
2018-10-17T09:46:18.586Z,14.90
2018-10-17T09:48:46.960Z,15.00
2018-10-17T09:51:15.304Z,15.10
2018-10-17T09:53:43.721Z,15.20
2018-10-17T09:56:12.704Z,15.30
2018-10-17T09:58:41.095Z,15.40
2018-10-17T10:01:15.940Z,15.50
2018-10-17T10:03:44.471Z,15.60
2018-10-17T10:06:12.922Z,15.80
2018-10-17T10:08:41.269Z,15.90
2018-10-17T10:11:09.740Z,15.90
2018-10-17T10:13:38.077Z,16.00
2018-10-17T10:16:06.468Z,16.10
2018-10-17T10:18:34.856Z,16.20
2018-10-17T10:21:03.206Z,16.20
2018-10-17T10:23:31.664Z,16.30
2018-10-17T10:25:59.974Z,16.40
2018-10-17T10:28:28.488Z,16.50
2018-10-17T10:30:56.760Z,16.60
2018-10-17T10:33:25.164Z,16.70
2018-10-17T10:35:53.518Z,16.70
2018-10-17T10:38:21.912Z,16.80
2018-10-17T10:40:50.256Z,16.90
2018-10-17T10:43:18.733Z,17.00
2018-10-17T10:45:47.132Z,17.10
2018-10-17T10:48:15.670Z,17.20
2018-10-17T10:50:43.953Z,17.20
2018-10-17T10:53:12.336Z,17.30
2018-10-17T10:55:40.672Z,17.40
2018-10-17T10:58:09.959Z,17.40
2018-10-17T11:00:38.288Z,17.60
2018-10-17T11:03:06.709Z,17.70
2018-10-17T11:05:35.220Z,17.70
2018-10-17T11:08:03.919Z,17.80
2018-10-17T11:10:32.327Z,17.80
2018-10-17T11:13:01.066Z,17.90
2018-10-17T11:15:29.445Z,18.00
2018-10-17T11:17:57.800Z,18.00
2018-10-17T11:20:26.180Z,18.10
2018-10-17T11:22:54.587Z,18.10
2018-10-17T11:25:22.929Z,18.10
2018-10-17T11:27:51.276Z,18.30
2018-10-17T11:30:19.651Z,18.40
2018-10-17T11:32:47.998Z,18.40
2018-10-17T11:35:16.445Z,18.40
2018-10-17T11:37:44.740Z,18.40
2018-10-17T11:40:13.239Z,18.50
2018-10-17T11:42:41.529Z,18.50
2018-10-17T11:45:10.074Z,18.50
2018-10-17T11:47:38.376Z,18.60
2018-10-17T11:50:08.099Z,18.60
2018-10-17T11:52:36.696Z,18.70
2018-10-17T11:55:05.625Z,18.70
2018-10-17T11:57:34.178Z,18.80
2018-10-17T12:00:02.670Z,18.80
2018-10-17T12:02:31.024Z,18.90
2018-10-17T12:04:59.609Z,19.00
2018-10-17T12:07:27.834Z,19.00
2018-10-17T12:09:56.216Z,19.10
2018-10-17T12:12:24.646Z,19.10
2018-10-17T12:14:53.045Z,19.10
2018-10-17T12:17:21.373Z,19.10
2018-10-17T12:19:49.799Z,19.20
2018-10-17T12:22:18.115Z,19.10
2018-10-17T12:24:46.492Z,19.10
2018-10-17T12:27:14.985Z,19.10
2018-10-17T12:29:43.284Z,19.10
2018-10-17T12:32:11.634Z,19.20
2018-10-17T12:34:40.091Z,19.20
2018-10-17T12:37:08.541Z,19.30
2018-10-17T12:39:36.997Z,19.40
2018-10-17T12:42:05.551Z,19.40
2018-10-17T12:44:33.974Z,19.50
2018-10-17T12:47:02.368Z,19.60
2018-10-17T12:49:30.765Z,19.60
2018-10-17T12:51:59.185Z,19.60
2018-10-17T12:54:27.498Z,19.70
2018-10-17T12:56:55.903Z,19.70
2018-10-17T12:59:24.252Z,19.70
2018-10-17T13:01:52.630Z,19.70
2018-10-17T13:04:20.987Z,19.70
2018-10-17T13:06:49.377Z,19.80
2018-10-17T13:09:17.733Z,19.80
2018-10-17T13:11:46.137Z,19.70
2018-10-17T13:14:14.491Z,19.70
2018-10-17T13:16:42.889Z,19.70
2018-10-17T13:19:11.301Z,19.70
2018-10-17T13:21:39.669Z,19.70
2018-10-17T13:24:08.033Z,19.70
2018-10-17T13:26:36.405Z,19.70
2018-10-17T13:29:05.409Z,19.80
2018-10-17T13:31:33.749Z,19.80
2018-10-17T13:34:02.117Z,19.80
2018-10-17T13:36:30.592Z,19.80
2018-10-17T13:38:58.946Z,19.80
2018-10-17T13:41:27.372Z,19.70
2018-10-17T13:43:55.738Z,19.70
2018-10-17T13:46:24.117Z,19.70
2018-10-17T13:48:52.529Z,19.70
2018-10-17T13:51:20.864Z,19.70
2018-10-17T13:53:49.208Z,19.70
2018-10-17T13:56:17.693Z,19.70
2018-10-17T13:58:46.044Z,19.70
2018-10-17T14:01:14.511Z,19.70
2018-10-17T14:03:42.793Z,19.70
2018-10-17T14:06:11.208Z,19.70
2018-10-17T14:08:39.568Z,19.70
2018-10-17T14:11:08.288Z,19.70
2018-10-17T14:13:36.688Z,19.70
2018-10-17T14:16:05.688Z,19.70
2018-10-17T14:18:34.032Z,19.70
2018-10-17T14:21:02.517Z,19.70
2018-10-17T14:23:31.347Z,19.70
2018-10-17T14:25:59.687Z,19.60
2018-10-17T14:28:28.047Z,19.70
2018-10-17T14:30:56.605Z,19.60
2018-10-17T14:33:24.997Z,19.60
2018-10-17T14:35:53.352Z,19.60
2018-10-17T14:38:21.820Z,19.60
2018-10-17T14:40:50.428Z,19.60
2018-10-17T14:43:18.687Z,19.70
2018-10-17T14:45:47.052Z,19.70
2018-10-17T14:48:15.482Z,19.70
2018-10-17T14:50:43.845Z,19.60
2018-10-17T14:53:12.305Z,19.60
2018-10-17T14:55:40.624Z,19.60
2018-10-17T14:58:09.020Z,19.60
2018-10-17T15:00:37.397Z,19.60
2018-10-17T15:03:05.855Z,19.60
2018-10-17T15:05:34.203Z,19.50
2018-10-17T15:08:02.684Z,19.50
2018-10-17T15:10:31.139Z,19.40
2018-10-17T15:12:59.513Z,19.40
2018-10-17T15:15:27.873Z,19.40
2018-10-17T15:17:56.349Z,19.30
2018-10-17T15:20:24.637Z,19.30
2018-10-17T15:22:53.015Z,19.20
2018-10-17T15:25:21.394Z,19.10
2018-10-17T15:27:49.843Z,19.10
2018-10-17T15:30:18.357Z,19.00
2018-10-17T15:32:46.640Z,19.00
2018-10-17T15:35:15.008Z,18.90
2018-10-17T15:37:43.421Z,18.80
2018-10-17T15:40:11.814Z,18.80
2018-10-17T15:42:40.385Z,18.70
2018-10-17T15:45:08.794Z,18.70
2018-10-17T15:47:37.204Z,18.60
2018-10-17T15:50:05.668Z,18.50
2018-10-17T15:52:34.069Z,18.50
2018-10-17T15:55:02.425Z,18.40
2018-10-17T15:57:30.833Z,18.40
2018-10-17T15:59:59.211Z,18.30
2018-10-17T16:02:27.655Z,18.10
2018-10-17T16:04:55.987Z,18.10
2018-10-17T16:07:24.396Z,17.90
2018-10-17T16:09:52.748Z,17.90
2018-10-17T16:12:21.136Z,17.80
2018-10-17T16:14:49.489Z,17.70
2018-10-17T16:17:17.918Z,17.60
2018-10-17T16:19:46.244Z,17.60
2018-10-17T16:22:14.603Z,17.50
2018-10-17T16:24:42.993Z,17.40
2018-10-17T16:27:11.352Z,17.30
2018-10-17T16:29:39.787Z,17.20
2018-10-17T16:32:08.209Z,17.10
2018-10-17T16:34:36.625Z,17.10
2018-10-17T16:37:05.416Z,17.00
2018-10-17T16:39:33.812Z,16.90
2018-10-17T16:42:02.229Z,16.80
2018-10-17T16:44:30.581Z,16.70
2018-10-17T16:46:58.948Z,16.70
2018-10-17T16:49:27.406Z,16.60
2018-10-17T16:51:55.776Z,16.60
2018-10-17T16:54:24.193Z,16.50
2018-10-17T16:56:52.554Z,16.50
2018-10-17T16:59:20.952Z,16.40
2018-10-17T17:01:49.312Z,16.40
2018-10-17T17:04:17.742Z,16.30
2018-10-17T17:06:46.063Z,16.30
2018-10-17T17:09:14.558Z,16.20
2018-10-17T17:11:42.846Z,16.10
2018-10-17T17:14:11.221Z,16.00
2018-10-17T17:16:39.585Z,16.00
2018-10-17T17:19:07.977Z,15.90
2018-10-17T17:21:36.327Z,15.80
2018-10-17T17:24:05.023Z,15.70
2018-10-17T17:26:33.629Z,15.70
2018-10-17T17:29:02.068Z,15.60
2018-10-17T17:31:30.430Z,15.50
2018-10-17T17:33:58.822Z,15.50
2018-10-17T17:36:27.223Z,15.40
2018-10-17T17:38:55.583Z,15.40
2018-10-17T17:41:24.309Z,15.40
2018-10-17T17:43:52.708Z,15.30
2018-10-17T17:46:21.062Z,15.20
2018-10-17T17:48:49.463Z,15.20
2018-10-17T17:51:17.827Z,15.10
2018-10-17T17:53:46.208Z,15.10
2018-10-17T17:56:14.552Z,15.10
2018-10-17T17:58:42.972Z,15.00
2018-10-17T18:01:11.345Z,15.00
2018-10-17T18:03:39.738Z,14.90
2018-10-17T18:06:08.095Z,14.90
2018-10-17T18:08:36.500Z,14.80
2018-10-17T18:11:24.624Z,14.70
2018-10-17T18:13:54.197Z,14.70
2018-10-17T18:16:22.596Z,14.60
2018-10-17T18:18:51.033Z,14.60
2018-10-17T18:21:19.408Z,14.50
2018-10-17T18:23:47.829Z,14.40
2018-10-17T18:26:22.965Z,14.40
2018-10-17T18:28:51.368Z,14.40
2018-10-17T18:31:19.913Z,14.40
2018-10-17T18:33:48.307Z,14.30
2018-10-17T18:36:16.673Z,14.30
2018-10-17T18:38:45.072Z,14.30
2018-10-17T18:41:13.541Z,14.30
2018-10-17T18:43:41.885Z,14.20
2018-10-17T18:46:10.277Z,14.20
2018-10-17T18:48:38.637Z,14.20
2018-10-17T18:51:07.479Z,14.20
2018-10-17T18:53:35.824Z,14.10
2018-10-17T18:56:04.270Z,14.00
2018-10-17T18:58:32.612Z,14.00
2018-10-17T19:01:01.000Z,13.90
2018-10-17T19:03:29.345Z,13.90
2018-10-17T19:05:57.728Z,13.90
2018-10-17T19:08:26.073Z,13.80
2018-10-17T19:10:54.440Z,13.80
2018-10-17T19:13:22.776Z,13.80
2018-10-17T19:15:51.184Z,13.80
2018-10-17T19:18:20.475Z,13.80
2018-10-17T19:20:48.875Z,13.70
2018-10-17T19:23:17.292Z,13.70
2018-10-17T19:25:45.697Z,13.70
2018-10-17T19:28:14.045Z,13.60
2018-10-17T19:30:42.514Z,13.60
2018-10-17T19:33:10.954Z,13.50
2018-10-17T19:35:39.512Z,13.50
2018-10-17T19:38:14.537Z,13.40
2018-10-17T19:40:42.937Z,13.40
2018-10-17T19:43:11.292Z,13.40
2018-10-17T19:45:39.688Z,13.40
2018-10-17T19:48:08.054Z,13.30
2018-10-17T19:50:36.448Z,13.30
2018-10-17T19:53:05.049Z,13.30
2018-10-17T19:55:33.476Z,13.20
2018-10-17T19:58:02.004Z,13.20
2018-10-17T20:00:30.388Z,13.10
2018-10-17T20:02:58.765Z,13.10
2018-10-17T20:05:27.151Z,13.00
2018-10-17T20:07:55.530Z,13.00
2018-10-17T20:10:23.918Z,12.90
2018-10-17T20:12:52.606Z,12.90
2018-10-17T20:15:21.002Z,12.80
2018-10-17T20:17:49.364Z,12.80
2018-10-17T20:20:17.707Z,12.70
2018-10-17T20:22:46.088Z,12.60
2018-10-17T20:25:14.578Z,12.60
2018-10-17T20:27:42.955Z,12.60
2018-10-17T20:30:11.384Z,12.50
2018-10-17T20:32:40.056Z,12.50
2018-10-17T20:35:08.822Z,12.40
2018-10-17T20:37:37.228Z,12.40
2018-10-17T20:40:05.627Z,12.30
2018-10-17T20:42:33.996Z,12.30
2018-10-17T20:45:02.328Z,12.30
2018-10-17T20:47:30.715Z,12.30
2018-10-17T20:49:59.085Z,12.20
2018-10-17T20:52:27.532Z,12.20
2018-10-17T20:54:55.863Z,12.20
2018-10-17T20:57:24.253Z,12.10
2018-10-17T20:59:52.588Z,12.10
2018-10-17T21:02:21.082Z,12.00
2018-10-17T21:04:49.416Z,12.00
2018-10-17T21:07:17.787Z,12.00
2018-10-17T21:09:46.232Z,11.90
2018-10-17T21:12:14.690Z,11.90
2018-10-17T21:14:43.059Z,11.90
2018-10-17T21:17:11.507Z,11.90
2018-10-17T21:19:39.883Z,11.80
2018-10-17T21:22:12.461Z,11.80
2018-10-17T21:24:40.872Z,11.70
2018-10-17T21:27:09.216Z,11.70
2018-10-17T21:29:37.692Z,11.70
2018-10-17T21:32:06.221Z,11.70
2018-10-17T21:34:34.556Z,11.70
2018-10-17T21:37:02.968Z,11.60
2018-10-17T21:39:31.304Z,11.60
2018-10-17T21:41:59.676Z,11.60
2018-10-17T21:44:28.023Z,11.60
2018-10-17T21:46:56.436Z,11.50
2018-10-17T21:49:24.770Z,11.50
2018-10-17T21:51:53.139Z,11.50
2018-10-17T21:54:21.524Z,11.50
2018-10-17T21:56:49.896Z,11.40
2018-10-17T21:59:18.272Z,11.40
2018-10-17T22:01:46.733Z,11.40
2018-10-17T22:04:15.065Z,11.40
2018-10-17T22:06:43.440Z,11.40
2018-10-17T22:09:11.984Z,11.40
2018-10-17T22:11:40.354Z,11.40
2018-10-17T22:14:09.107Z,11.40
2018-10-17T22:17:09.039Z,11.40
2018-10-17T22:19:38.352Z,11.40
2018-10-17T22:22:07.201Z,11.40
2018-10-17T22:24:35.577Z,11.40
2018-10-17T22:27:03.915Z,11.40
2018-10-17T22:29:32.309Z,11.40
2018-10-17T22:32:00.658Z,11.40
2018-10-17T22:34:29.000Z,11.30
2018-10-17T22:36:57.548Z,11.30
2018-10-17T22:39:25.908Z,11.30
2018-10-17T22:41:54.275Z,11.30
2018-10-17T22:44:22.631Z,11.30
2018-10-17T22:46:51.042Z,11.20
2018-10-17T22:49:19.380Z,11.20
2018-10-17T22:51:47.708Z,11.10
2018-10-17T22:54:16.089Z,11.00
2018-10-17T22:56:44.508Z,11.00
2018-10-17T22:59:12.963Z,10.90
2018-10-17T23:01:41.361Z,10.90
2018-10-17T23:04:09.932Z,10.90
2018-10-17T23:06:38.488Z,10.90
2018-10-17T23:09:10.033Z,10.80
2018-10-17T23:11:38.544Z,10.80
2018-10-17T23:14:07.233Z,10.90
2018-10-17T23:16:35.552Z,10.80
2018-10-17T23:19:04.111Z,10.80
2018-10-17T23:21:32.480Z,10.80
2018-10-17T23:24:01.092Z,10.80
2018-10-17T23:26:29.458Z,10.80
2018-10-17T23:28:57.843Z,10.80
2018-10-17T23:31:26.192Z,10.80
2018-10-17T23:33:54.687Z,10.80
2018-10-17T23:36:23.471Z,10.80
2018-10-17T23:38:52.201Z,10.70
2018-10-17T23:41:21.069Z,10.70
2018-10-17T23:43:49.456Z,10.70
2018-10-17T23:46:17.797Z,10.70
2018-10-17T23:48:46.168Z,10.60
2018-10-17T23:51:14.549Z,10.60
2018-10-17T23:53:42.920Z,10.60
2018-10-17T23:56:11.351Z,10.60
2018-10-17T23:58:39.648Z,10.60
